Guy, Texas
Current Conditions -  °F | °C
As of 5:53 AM on Monday 22 Dec 2014 (Local Time) from KSGR Reporting Station
Haze Haze  
Wind Chill: 56°   Ceiling: 2800
Heat Index: 56°   Visibility: 4mi
Dew Point: 55°   Wind: 3mph
Humidity: 97%   Direction: 150°SSE
Pressure: 29.76"   Gusts: NA
Location:  29.34°N, 95.78°W
Report Text: KSGR 221153Z AUTO 15003KT 4SM BR SCT017 BKN028 13/13 A2976 RMK AO2 SLP079 T01330128 10139 20117 56018
Loading
Personal Weather Stations






























Interactive Weather Map New forecast layout! Learn more

10-Day Weather Forecast

Advertisements
Track Severe Weather on mobile